Humidity-temperature Sensor

Selected Measurement Type: Relative Humidity

 
Relative Humidity [%]     6 entries per hour
Showing data from 3/29/2023 (00:00:00 Z) to 3/26/2023 (00:01:00 Z)
Previous Next [ Day | 3-Days | 7-Days ]
First Last
Prev [ Day | 3-Days | 7-Days ] Next
First Last

Start Time:     :
End Time:     :     
Time (in GMT) :00 :50 :40 :30 :20 :10
Previous Next [ Day | 3-Days | 7-Days ]
First Last
Prev [ Day | 3-Days | 7-Days ] Next
First Last


123 => good data
MM => data is determined as missing
-- => data not received/configured
Back to Top Back to Top
3/29/2023 00:00 to 23:10 83.30 83.89 82.92 82.92 82.86 82.90
3/28/2023 23:00 to 22:10 83.04 82.71 81.76 81.52 81.56 80.57
3/28/2023 22:00 to 21:10 82.55 83.56 83.20 80.73 81.48 83.40
3/28/2023 21:00 to 20:10 80.45 80.75 83.38 83.91 82.33 82.25
3/28/2023 20:00 to 19:10 82.84 84.53 84.15 83.00 83.91 84.23
3/28/2023 19:00 to 18:10 81.52 79.70 82.11 86.89 88.93 85.36
3/28/2023 18:00 to 17:10 84.67 84.85 84.94 83.68 83.70 84.27
3/28/2023 17:00 to 16:10 89.02 90.01 90.81 90.29 90.21 91.22
3/28/2023 16:00 to 15:10 92.05 92.41 93.46 94.29 95.34 95.92
3/28/2023 15:00 to 14:10 96.27 96.53 94.89 93.92 95.26 95.50
3/28/2023 14:00 to 13:10 95.48 96.00 96.53 97.11 96.02 92.83
3/28/2023 13:00 to 12:10 92.99 92.49 92.00 93.46 94.81 97.82
3/28/2023 12:00 to 11:10 98.10 96.77 93.50 93.74 94.11 94.41
3/28/2023 11:00 to 10:10 94.69 94.77 94.47 93.24 92.45 92.31
3/28/2023 10:00 to 9:10 92.61 92.95 93.70 94.49 94.39 94.59
3/28/2023 09:00 to 8:10 95.36 96.53 96.35 95.88 95.74 95.64
3/28/2023 08:00 to 7:10 95.94 96.04 96.39 96.55 96.97 97.48
3/28/2023 07:00 to 6:10 97.54 97.96 98.04 98.17 98.47 98.79
3/28/2023 06:00 to 5:10 99.05 99.20 99.26 99.42 99.22 98.99
3/28/2023 05:00 to 4:10 98.77 97.86 96.85 95.01 94.91 95.44
3/28/2023 04:00 to 3:10 95.80 96.41 97.05 98.10 98.49 99.15
3/28/2023 03:00 to 2:10 99.42 99.48 99.90 99.78 99.70 99.80
3/28/2023 02:00 to 1:10 99.66 99.48 99.40 99.20 99.38 99.66
3/28/2023 01:00 to 0:10 99.84 99.98 100.45 100.59 100.63 100.63
3/28/2023 00:00 to 23:10 100.63 100.63 100.63 100.63 100.63 100.59
3/27/2023 23:00 to 22:10 100.47 100.39 100.21 99.38 98.55 98.51
3/27/2023 22:00 to 21:10 96.79 96.06 92.17 91.30 91.28 89.42
3/27/2023 21:00 to 20:10 87.82 82.35 82.79 86.85 87.97 88.31
3/27/2023 20:00 to 19:10 88.01 87.84 88.98 89.50 88.89 87.68
3/27/2023 19:00 to 18:10 88.23 87.58 88.69 88.61 89.14 90.35
3/27/2023 18:00 to 17:10 90.51 90.53 89.76 89.36 87.58 86.49
3/27/2023 17:00 to 16:10 84.07 82.29 86.09 92.57 96.31 95.96
3/27/2023 16:00 to 15:10 88.93 88.25 87.90 88.49 89.22 89.72
3/27/2023 15:00 to 14:10 89.28 90.07 90.07 90.45 92.03 93.18
3/27/2023 14:00 to 13:10 96.00 98.00 99.22 100.15 100.51 100.59
3/27/2023 13:00 to 12:10 100.51 100.35 99.96 99.68 99.80 99.48
3/27/2023 12:00 to 11:10 98.33 97.82 97.01 97.01 96.47 92.45
3/27/2023 11:00 to 10:10 90.65 88.59 89.40 91.16 91.66 91.68
3/27/2023 10:00 to 9:10 91.34 90.51 89.14 88.27 87.64 88.19
3/27/2023 09:00 to 8:10 89.44 91.04 90.17 89.78 90.19 90.25
3/27/2023 08:00 to 7:10 90.47 92.43 93.14 94.39 93.64 92.07
3/27/2023 07:00 to 6:10 92.75 94.81 95.03 95.56 96.11 90.95
3/27/2023 06:00 to 5:10 91.56 92.19 93.82 92.73 90.59 90.91
3/27/2023 05:00 to 4:10 92.00 92.41 93.04 93.32 93.32 93.38
3/27/2023 04:00 to 3:10 92.73 93.80 94.99 94.79 95.28 95.58
3/27/2023 03:00 to 2:10 93.72 92.81 87.74 87.50 88.77 87.88
3/27/2023 02:00 to 1:10 87.40 87.34 87.04 87.86 86.61 85.76
3/27/2023 01:00 to 0:10 84.83 84.45 84.23 84.71 83.89 83.97
3/27/2023 00:00 to 23:10 83.74 82.86 83.06 82.63 84.09 83.95
3/26/2023 23:00 to 22:10 83.36 84.19 84.21 83.04 84.15 83.32
3/26/2023 22:00 to 21:10 84.85 84.59 84.59 84.88 84.31 84.45
3/26/2023 21:00 to 20:10 83.52 83.46 82.59 83.82 83.46 83.30
3/26/2023 20:00 to 19:10 83.97 83.70 83.60 83.66 83.34 84.43
3/26/2023 19:00 to 18:10 84.63 83.93 83.80 84.67 84.49 84.83
3/26/2023 18:00 to 17:10 84.98 84.81 83.87 82.92 82.35 82.47
3/26/2023 17:00 to 16:10 82.77 82.77 84.11 83.68 84.37 85.12
3/26/2023 16:00 to 15:10 85.06 84.77 84.11 84.39 84.63 84.92
3/26/2023 15:00 to 14:10 87.14 89.38 91.00 90.75 89.84 88.25
3/26/2023 14:00 to 13:10 87.08 88.51 89.32 89.30 89.78 90.21
3/26/2023 13:00 to 12:10 89.99 89.96 90.03 89.99 90.53 91.48
3/26/2023 12:00 to 11:10 92.23 90.47 90.43 87.72 87.36 87.48
3/26/2023 11:00 to 10:10 88.09 88.09 88.01 88.15 89.80 90.89
3/26/2023 10:00 to 9:10 90.91 90.47 90.29 89.60 89.04 88.07
3/26/2023 09:00 to 8:10 87.42 86.51 86.65 89.26 89.99 89.48
3/26/2023 08:00 to 7:10 87.50 86.15 86.77 90.47 93.82 94.55
3/26/2023 07:00 to 6:10 94.71 93.84 93.12 89.74 87.50 86.92
3/26/2023 06:00 to 5:10 86.67 86.63 87.40 87.62 88.07 88.61
3/26/2023 05:00 to 4:10 88.27 87.12 87.32 87.32 87.08 87.93
3/26/2023 04:00 to 3:10 87.97 87.10 87.26 87.06 87.38 86.13
3/26/2023 03:00 to 2:10 86.92 85.12 85.14 85.70 84.67 85.28
3/26/2023 02:00 to 1:10 85.97 86.27 89.18 90.77 90.65 91.06
3/26/2023 01:00 to 0:10 91.58 90.95 91.32 91.24 88.65 85.46